To NAV CANADA Home Page Login to a new session Search on AWWS site Disclaimer Vers la page française équivalente Tips FAQ What's new on the site To the Forecasts and Observations / NOTAM section To "File a Flight Plan" website Publications and other links Update of the User's profile FIC Telephone Numbers My Weather Data Folder Route Weather Data Regional Weather Data Local Weather Data To the Forecasts and Observations / NOTAM section
Request Generated 06/14/2021 at 18:36:21 UTC . Weather information available at that time is displayed.


Go to a specific product

Save this request - Inactive

METAR/TAF

CALGARY/YYC CALGARY INTL/AB    

METAR CYYC 141800Z 04004KT 020V090 40SM FEW055CB 25/11 A2993 RMK CB1 CB TR LN 3 CB TOPS DIST WSW - NW SLP120 DENSITY ALT 5600FT=
METAR CYYC 141700Z 29003KT 280V070 40SM FEW047TCU 22/11 A2994 RMK TCU1 TCU TR TCU TOPS DIST SW - N SLP127 DENSITY ALT 5300FT=
METAR CYYC 141600Z VRB06KT 40SM FEW300 22/11 A2997 RMK CI1 CI TR LN 4 CB TOPS DIST W-N MOVG NE SLP131 DENSITY ALT 5200FT=

TAF CYYC 141740Z 1418/1518 VRB03KT P6SM FEW050
BECMG 1418/1420 15010KT
FM142300 15012KT P6SM FEW090 BKN250 TEMPO 1423/1504 VRB15G25KT
P6SM -SHRA VCTS BKN090CB
FM150400 02008KT P6SM SKC
FM150900 35005KT P6SM SKC PROB40 1510/1514 3/4SM BR
FM151400 35010KT P6SM FEW012
RMK NXT FCST BY 142100Z=

CALGARY/SPRINGBANK/AB    (show WxCam)

METAR CYBW 141800Z AUTO VRB05KT 9SM CLR 23/11 A2994 RMK SLP130 DENSITY ALT 5800FT=
METAR CYBW 141700Z AUTO VRB02KT 9SM CLR 21/11 A2996 RMK SLP137 DENSITY ALT 5600FT=
METAR CYBW 141600Z AUTO 20003KT 150V280 9SM CLR 20/11 A2998 RMK SLP139 DENSITY ALT 5400FT=

TAF CYBW 141740Z 1418/1504 VRB03KT P6SM FEW050
BECMG 1418/1420 15010KT
FM142200 15012KT P6SM FEW090 BKN250 TEMPO 1422/1504 VRB15G25KT
P6SM -SHRA VCTS BKN090CB
RMK FCST BASED ON AUTO OBS. NXT FCST BY 150000Z=


GRAPHICAL FA CLOUDS & WEATHER FORECASTS
To the Product Selector
Graphical FA gfacn32      

GRAPHICAL FA ICING, TURBULENCE & FREEZING LEVEL FORECASTS
To the Product Selector
Graphical FA gfacn32      

Your time UTC time
Weather data provided by Environment Canada and NAV CANADA